sensor_id;sensor_type;location;lat;lon;timestamp;temperature;humidity
33428;DHT22;19769;48.150;16.306;2022-11-20T02:03:33;4.10;99.90
33428;DHT22;19769;48.150;16.306;2022-11-20T02:06:07;4.10;99.90
33428;DHT22;19769;48.150;16.306;2022-11-20T02:08:35;4.10;99.90
33428;DHT22;19769;48.150;16.306;2022-11-20T02:11:01;4.10;99.90
33428;DHT22;19769;48.150;16.306;2022-11-20T02:13:28;4.00;99.90
33428;DHT22;19769;48.150;16.306;2022-11-20T02:16:10;4.10;99.90
33428;DHT22;19769;48.150;16.306;2022-11-20T02:18:36;4.00;99.90
33428;DHT22;19769;48.150;16.306;2022-11-20T02:21:05;4.00;99.90
33428;DHT22;19769;48.150;16.306;2022-11-20T02:23:37;3.90;99.90
33428;DHT22;19769;48.150;16.306;2022-11-20T02:26:04;3.90;99.90
33428;DHT22;19769;48.150;16.306;2022-11-20T02:28:31;4.00;99.90
33428;DHT22;19769;48.150;16.306;2022-11-20T02:30:57;3.80;99.90
33428;DHT22;19769;48.150;16.306;2022-11-20T02:33:23;3.80;99.90
33428;DHT22;19769;48.150;16.306;2022-11-20T02:35:49;3.80;99.90
33428;DHT22;19769;48.150;16.306;2022-11-20T02:38:14;3.90;99.90
33428;DHT22;19769;48.150;16.306;2022-11-20T02:40:40;3.90;99.90
33428;DHT22;19769;48.150;16.306;2022-11-20T02:43:06;3.90;99.90
33428;DHT22;19769;48.150;16.306;2022-11-20T02:45:32;3.90;99.90
33428;DHT22;19769;48.150;16.306;2022-11-20T02:47:57;3.90;99.90
33428;DHT22;19769;48.150;16.306;2022-11-20T02:50:26;3.80;99.90
33428;DHT22;19769;48.150;16.306;2022-11-20T02:52:52;3.90;99.90
33428;DHT22;19769;48.150;16.306;2022-11-20T02:55:18;4.00;99.90
33428;DHT22;19769;48.150;16.306;2022-11-20T02:57:43;4.00;99.90
33428;DHT22;19769;48.150;16.306;2022-11-20T03:00:09;4.00;99.90
33428;DHT22;19769;48.150;16.306;2022-11-20T03:02:35;4.00;99.90
33428;DHT22;19769;48.150;16.306;2022-11-20T03:05:01;4.00;99.90
33428;DHT22;19769;48.150;16.306;2022-11-20T03:07:26;4.00;99.90
33428;DHT22;19769;48.150;16.306;2022-11-20T03:09:52;4.10;99.90
33428;DHT22;19769;48.150;16.306;2022-11-20T03:12:18;4.10;99.90
33428;DHT22;19769;48.150;16.306;2022-11-20T03:14:43;4.00;99.90
33428;DHT22;19769;48.150;16.306;2022-11-20T03:17:09;4.00;99.90
33428;DHT22;19769;48.150;16.306;2022-11-20T03:19:35;4.10;99.90
33428;DHT22;19769;48.150;16.306;2022-11-20T03:22:00;4.00;99.90
33428;DHT22;19769;48.150;16.306;2022-11-20T03:24:26;4.10;99.90
33428;DHT22;19769;48.150;16.306;2022-11-20T03:26:52;4.10;99.90
33428;DHT22;19769;48.150;16.306;2022-11-20T03:29:17;4.00;99.90
33428;DHT22;19769;48.150;16.306;2022-11-20T03:31:43;3.90;99.90
33428;DHT22;19769;48.150;16.306;2022-11-20T03:34:09;4.00;99.90
33428;DHT22;19769;48.150;16.306;2022-11-20T03:36:36;4.10;99.90
33428;DHT22;19769;48.150;16.306;2022-11-20T03:39:02;4.00;99.90
33428;DHT22;19769;48.150;16.306;2022-11-20T03:41:31;4.20;99.90
33428;DHT22;19769;48.150;16.306;2022-11-20T03:44:01;4.10;99.90
33428;DHT22;19769;48.150;16.306;2022-11-20T03:46:27;4.10;99.90
33428;DHT22;19769;48.150;16.306;2022-11-20T03:48:53;4.10;99.90
33428;DHT22;19769;48.150;16.306;2022-11-20T03:51:20;4.00;99.90
33428;DHT22;19769;48.150;16.306;2022-11-20T03:53:46;4.10;99.90
33428;DHT22;19769;48.150;16.306;2022-11-20T03:56:13;4.20;99.90
33428;DHT22;19769;48.150;16.306;2022-11-20T03:58:39;4.20;99.90
33428;DHT22;19769;48.150;16.306;2022-11-20T04:01:09;4.30;99.90
33428;DHT22;19769;48.150;16.306;2022-11-20T04:03:36;4.20;99.90
33428;DHT22;19769;48.150;16.306;2022-11-20T04:06:12;4.20;99.90
33428;DHT22;19769;48.150;16.306;2022-11-20T04:08:38;4.30;99.90
33428;DHT22;19769;48.150;16.306;2022-11-20T04:11:15;4.20;99.90
33428;DHT22;19769;48.150;16.306;2022-11-20T04:13:41;4.20;99.90
33428;DHT22;19769;48.150;16.306;2022-11-20T04:16:08;4.20;99.90
33428;DHT22;19769;48.150;16.306;2022-11-20T04:18:34;4.20;99.90
33428;DHT22;19769;48.150;16.306;2022-11-20T04:20:59;4.20;99.90
33428;DHT22;19769;48.150;16.306;2022-11-20T04:23:26;4.20;99.90
33428;DHT22;19769;48.150;16.306;2022-11-20T04:25:52;4.20;99.90
33428;DHT22;19769;48.150;16.306;2022-11-20T04:28:17;4.20;99.90
33428;DHT22;19769;48.150;16.306;2022-11-20T04:30:43;4.20;99.90
33428;DHT22;19769;48.150;16.306;2022-11-20T04:33:09;4.20;99.90
33428;DHT22;19769;48.150;16.306;2022-11-20T04:35:35;4.20;99.90
33428;DHT22;19769;48.150;16.306;2022-11-20T04:38:01;4.20;99.90
33428;DHT22;19769;48.150;16.306;2022-11-20T04:40:30;4.20;99.90
33428;DHT22;19769;48.150;16.306;2022-11-20T04:42:55;4.20;99.90
33428;DHT22;19769;48.150;16.306;2022-11-20T04:45:24;4.20;99.90
33428;DHT22;19769;48.150;16.306;2022-11-20T04:47:50;4.30;99.90
33428;DHT22;19769;48.150;16.306;2022-11-20T04:50:15;4.20;99.90
33428;DHT22;19769;48.150;16.306;2022-11-20T04:52:41;4.20;99.90
33428;DHT22;19769;48.150;16.306;2022-11-20T04:55:07;4.10;99.90
33428;DHT22;19769;48.150;16.306;2022-11-20T04:57:33;4.20;99.90
33428;DHT22;19769;48.150;16.306;2022-11-20T04:59:58;4.20;99.90
33428;DHT22;19769;48.150;16.306;2022-11-20T05:02:24;4.10;99.90
33428;DHT22;19769;48.150;16.306;2022-11-20T05:04:50;4.20;99.90
33428;DHT22;19769;48.150;16.306;2022-11-20T05:07:15;4.20;99.90
33428;DHT22;19769;48.150;16.306;2022-11-20T05:09:42;4.20;99.90
33428;DHT22;19769;48.150;16.306;2022-11-20T05:12:08;4.10;99.90
33428;DHT22;19769;48.150;16.306;2022-11-20T05:14:34;4.10;99.90
33428;DHT22;19769;48.150;16.306;2022-11-20T05:16:59;4.10;99.90
33428;DHT22;19769;48.150;16.306;2022-11-20T05:19:25;4.10;99.90
33428;DHT22;19769;48.150;16.306;2022-11-20T05:21:51;4.10;99.90
33428;DHT22;19769;48.150;16.306;2022-11-20T05:24:16;4.10;99.90
33428;DHT22;19769;48.150;16.306;2022-11-20T05:26:42;4.10;99.90
33428;DHT22;19769;48.150;16.306;2022-11-20T05:29:09;4.10;99.90
33428;DHT22;19769;48.150;16.306;2022-11-20T05:31:35;4.20;99.90
33428;DHT22;19769;48.150;16.306;2022-11-20T05:34:01;4.20;99.90
33428;DHT22;19769;48.150;16.306;2022-11-20T05:36:27;4.20;99.90
33428;DHT22;19769;48.150;16.306;2022-11-20T05:38:53;4.30;99.90
33428;DHT22;19769;48.150;16.306;2022-11-20T05:41:19;4.30;99.90
33428;DHT22;19769;48.150;16.306;2022-11-20T05:43:46;4.30;99.90
33428;DHT22;19769;48.150;16.306;2022-11-20T05:46:12;4.20;99.90
33428;DHT22;19769;48.150;16.306;2022-11-20T05:48:39;4.30;99.90
33428;DHT22;19769;48.150;16.306;2022-11-20T05:51:05;4.30;99.90
33428;DHT22;19769;48.150;16.306;2022-11-20T05:53:31;4.30;99.90
33428;DHT22;19769;48.150;16.306;2022-11-20T05:56:01;4.30;99.90
33428;DHT22;19769;48.150;16.306;2022-11-20T05:58:27;4.30;99.90
33428;DHT22;19769;48.150;16.306;2022-11-20T06:00:53;4.30;99.90
33428;DHT22;19769;48.150;16.306;2022-11-20T06:03:18;4.40;99.90
33428;DHT22;19769;48.150;16.306;2022-11-20T06:05:44;4.30;99.90
33428;DHT22;19769;48.150;16.306;2022-11-20T06:08:10;4.40;99.90
33428;DHT22;19769;48.150;16.306;2022-11-20T06:10:36;4.50;99.90
33428;DHT22;19769;48.150;16.306;2022-11-20T06:13:01;4.40;99.90
33428;DHT22;19769;48.150;16.306;2022-11-20T06:15:27;4.40;99.90
33428;DHT22;19769;48.150;16.306;2022-11-20T06:17:53;4.30;99.90
33428;DHT22;19769;48.150;16.306;2022-11-20T06:20:19;4.40;99.90
33428;DHT22;19769;48.150;16.306;2022-11-20T06:22:46;4.40;99.90
33428;DHT22;19769;48.150;16.306;2022-11-20T06:25:12;4.30;99.90
33428;DHT22;19769;48.150;16.306;2022-11-20T06:27:37;4.20;99.90
33428;DHT22;19769;48.150;16.306;2022-11-20T06:30:03;4.20;99.90
33428;DHT22;19769;48.150;16.306;2022-11-20T06:32:29;4.20;99.90
33428;DHT22;19769;48.150;16.306;2022-11-20T06:34:55;4.30;99.90
33428;DHT22;19769;48.150;16.306;2022-11-20T06:37:20;4.20;99.90
33428;DHT22;19769;48.150;16.306;2022-11-20T06:39:46;4.10;99.90
33428;DHT22;19769;48.150;16.306;2022-11-20T06:42:12;4.10;99.90
33428;DHT22;19769;48.150;16.306;2022-11-20T06:44:37;4.10;99.90
33428;DHT22;19769;48.150;16.306;2022-11-20T06:47:03;4.10;99.90
33428;DHT22;19769;48.150;16.306;2022-11-20T06:49:29;4.10;99.90
33428;DHT22;19769;48.150;16.306;2022-11-20T06:51:54;4.10;99.90
33428;DHT22;19769;48.150;16.306;2022-11-20T06:54:20;4.10;99.90
33428;DHT22;19769;48.150;16.306;2022-11-20T06:56:49;4.10;99.90
33428;DHT22;19769;48.150;16.306;2022-11-20T06:59:14;4.10;99.90
33428;DHT22;19769;48.150;16.306;2022-11-20T07:01:43;4.20;99.90
33428;DHT22;19769;48.150;16.306;2022-11-20T07:04:08;4.20;99.90
33428;DHT22;19769;48.150;16.306;2022-11-20T07:06:34;4.10;99.90
33428;DHT22;19769;48.150;16.306;2022-11-20T07:09:00;4.20;99.90
33428;DHT22;19769;48.150;16.306;2022-11-20T07:11:27;4.20;99.90
33428;DHT22;19769;48.150;16.306;2022-11-20T07:13:52;4.10;99.90
33428;DHT22;19769;48.150;16.306;2022-11-20T07:16:18;4.10;99.90
33428;DHT22;19769;48.150;16.306;2022-11-20T07:18:44;4.20;99.90
33428;DHT22;19769;48.150;16.306;2022-11-20T07:21:10;4.20;99.90
33428;DHT22;19769;48.150;16.306;2022-11-20T07:23:36;4.20;99.90
33428;DHT22;19769;48.150;16.306;2022-11-20T07:28:30;4.30;99.90
33428;DHT22;19769;48.150;16.306;2022-11-20T07:30:56;4.40;99.90
33428;DHT22;19769;48.150;16.306;2022-11-20T07:33:21;4.40;99.90
33428;DHT22;19769;48.150;16.306;2022-11-20T07:35:47;4.40;99.90
33428;DHT22;19769;48.150;16.306;2022-11-20T07:38:13;4.40;99.90
33428;DHT22;19769;48.150;16.306;2022-11-20T07:40:38;4.50;99.90
33428;DHT22;19769;48.150;16.306;2022-11-20T07:43:04;4.50;99.90
33428;DHT22;19769;48.150;16.306;2022-11-20T07:45:33;4.50;99.90
33428;DHT22;19769;48.150;16.306;2022-11-20T07:47:58;4.50;99.90
33428;DHT22;19769;48.150;16.306;2022-11-20T07:50:24;4.50;99.90
33428;DHT22;19769;48.150;16.306;2022-11-20T07:52:50;4.50;99.90
33428;DHT22;19769;48.150;16.306;2022-11-20T07:55:16;4.50;99.90
33428;DHT22;19769;48.150;16.306;2022-11-20T07:57:41;4.40;99.90
33428;DHT22;19769;48.150;16.306;2022-11-20T08:00:08;4.40;99.90
33428;DHT22;19769;48.150;16.306;2022-11-20T08:02:38;4.30;99.90
33428;DHT22;19769;48.150;16.306;2022-11-20T08:05:04;4.30;99.90
33428;DHT22;19769;48.150;16.306;2022-11-20T08:07:37;4.30;99.90
33428;DHT22;19769;48.150;16.306;2022-11-20T08:10:04;4.40;99.90
33428;DHT22;19769;48.150;16.306;2022-11-20T08:12:30;4.30;99.90
33428;DHT22;19769;48.150;16.306;2022-11-20T08:15:14;4.30;99.90
33428;DHT22;19769;48.150;16.306;2022-11-20T08:17:40;4.30;99.90
33428;DHT22;19769;48.150;16.306;2022-11-20T08:20:06;4.40;99.90
33428;DHT22;19769;48.150;16.306;2022-11-20T08:22:31;4.50;99.90
33428;DHT22;19769;48.150;16.306;2022-11-20T09:11:13;4.60;99.90
33428;DHT22;19769;48.150;16.306;2022-11-20T09:33:10;5.40;99.90
33428;DHT22;19769;48.150;16.306;2022-11-20T09:35:35;5.80;99.90
33428;DHT22;19769;48.150;16.306;2022-11-20T09:38:05;5.70;99.90
33428;DHT22;19769;48.150;16.306;2022-11-20T09:40:31;5.80;99.90
33428;DHT22;19769;48.150;16.306;2022-11-20T09:42:59;5.80;99.90
33428;DHT22;19769;48.150;16.306;2022-11-20T09:45:30;5.80;99.90
33428;DHT22;19769;48.150;16.306;2022-11-20T09:50:35;5.70;99.90
33428;DHT22;19769;48.150;16.306;2022-11-20T09:55:46;5.50;99.90
33428;DHT22;19769;48.150;16.306;2022-11-20T09:58:27;5.50;99.90
33428;DHT22;19769;48.150;16.306;2022-11-20T10:00:56;5.40;99.90
33428;DHT22;19769;48.150;16.306;2022-11-20T10:03:34;5.30;99.90
33428;DHT22;19769;48.150;16.306;2022-11-20T10:06:02;5.30;99.90
33428;DHT22;19769;48.150;16.306;2022-11-20T10:08:28;5.40;99.90
33428;DHT22;19769;48.150;16.306;2022-11-20T10:23:55;6.00;99.90
33428;DHT22;19769;48.150;16.306;2022-11-20T10:26:26;6.00;99.90
33428;DHT22;19769;48.150;16.306;2022-11-20T10:31:31;6.00;99.90
33428;DHT22;19769;48.150;16.306;2022-11-20T10:33:58;5.90;99.90
33428;DHT22;19769;48.150;16.306;2022-11-20T10:36:28;6.00;99.90
33428;DHT22;19769;48.150;16.306;2022-11-20T11:54:56;6.10;99.90
33428;DHT22;19769;48.150;16.306;2022-11-20T12:32:14;13.90;76.90
33428;DHT22;19769;48.150;16.306;2022-11-20T12:59:55;12.10;82.50
33428;DHT22;19769;48.150;16.306;2022-11-20T13:05:04;13.40;81.80
33428;DHT22;19769;48.150;16.306;2022-11-20T13:07:34;13.60;79.60
33428;DHT22;19769;48.150;16.306;2022-11-20T13:10:00;14.10;79.40
33428;DHT22;19769;48.150;16.306;2022-11-20T13:12:32;14.70;76.70
33428;DHT22;19769;48.150;16.306;2022-11-20T13:32:11;15.60;72.60
33428;DHT22;19769;48.150;16.306;2022-11-20T13:37:05;12.50;78.50
33428;DHT22;19769;48.150;16.306;2022-11-20T14:57:35;11.10;87.30
33428;DHT22;19769;48.150;16.306;2022-11-20T15:02:42;6.80;99.90
33428;DHT22;19769;48.150;16.306;2022-11-20T15:05:11;6.80;99.90
33428;DHT22;19769;48.150;16.306;2022-11-20T15:07:43;6.80;99.90
33428;DHT22;19769;48.150;16.306;2022-11-20T15:10:21;6.70;99.90
33428;DHT22;19769;48.150;16.306;2022-11-20T15:13:11;6.70;99.90
33428;DHT22;19769;48.150;16.306;2022-11-20T15:16:21;6.60;99.90
33428;DHT22;19769;48.150;16.306;2022-11-20T15:18:54;6.60;99.90
33428;DHT22;19769;48.150;16.306;2022-11-20T15:21:31;6.50;99.90
33428;DHT22;19769;48.150;16.306;2022-11-20T15:24:04;6.40;99.90
33428;DHT22;19769;48.150;16.306;2022-11-20T15:26:53;6.40;99.90
33428;DHT22;19769;48.150;16.306;2022-11-20T15:29:26;6.30;99.90
33428;DHT22;19769;48.150;16.306;2022-11-20T15:31:59;6.30;99.90
33428;DHT22;19769;48.150;16.306;2022-11-20T15:34:28;6.20;99.90
33428;DHT22;19769;48.150;16.306;2022-11-20T15:37:00;6.20;99.90
33428;DHT22;19769;48.150;16.306;2022-11-20T15:42:07;6.00;99.90
33428;DHT22;19769;48.150;16.306;2022-11-20T15:44:34;5.90;99.90
33428;DHT22;19769;48.150;16.306;2022-11-20T15:47:00;5.80;99.90
33428;DHT22;19769;48.150;16.306;2022-11-20T15:49:26;5.70;99.90
33428;DHT22;19769;48.150;16.306;2022-11-20T15:51:53;5.70;99.90
33428;DHT22;19769;48.150;16.306;2022-11-20T15:54:20;5.70;99.90
33428;DHT22;19769;48.150;16.306;2022-11-20T15:56:47;5.70;99.90
33428;DHT22;19769;48.150;16.306;2022-11-20T15:59:13;5.70;99.90
33428;DHT22;19769;48.150;16.306;2022-11-20T16:01:41;5.70;99.90
33428;DHT22;19769;48.150;16.306;2022-11-20T16:04:14;5.70;99.90
33428;DHT22;19769;48.150;16.306;2022-11-20T16:06:40;5.60;99.90
33428;DHT22;19769;48.150;16.306;2022-11-20T16:09:08;5.60;99.90
33428;DHT22;19769;48.150;16.306;2022-11-20T21:48:49;5.60;99.90
33428;DHT22;19769;48.150;16.306;2022-11-20T21:51:16;5.20;99.90
33428;DHT22;19769;48.150;16.306;2022-11-20T21:53:42;5.10;99.90
33428;DHT22;19769;48.150;16.306;2022-11-20T21:56:09;5.10;99.90
33428;DHT22;19769;48.150;16.306;2022-11-20T21:58:35;5.00;99.90
33428;DHT22;19769;48.150;16.306;2022-11-20T22:03:33;4.90;99.90
33428;DHT22;19769;48.150;16.306;2022-11-20T22:05:59;4.90;99.90
33428;DHT22;19769;48.150;16.306;2022-11-20T22:08:25;4.80;99.90
33428;DHT22;19769;48.150;16.306;2022-11-20T22:10:58;4.80;99.90
33428;DHT22;19769;48.150;16.306;2022-11-20T22:13:24;4.80;99.90
33428;DHT22;19769;48.150;16.306;2022-11-20T22:16:08;4.80;99.90
33428;DHT22;19769;48.150;16.306;2022-11-20T22:18:34;4.80;99.90
33428;DHT22;19769;48.150;16.306;2022-11-20T22:21:04;4.70;99.90
33428;DHT22;19769;48.150;16.306;2022-11-20T22:23:30;4.70;99.90
33428;DHT22;19769;48.150;16.306;2022-11-20T22:26:00;4.70;99.90
33428;DHT22;19769;48.150;16.306;2022-11-20T22:28:25;4.70;99.90
33428;DHT22;19769;48.150;16.306;2022-11-20T22:30:51;4.60;99.90
33428;DHT22;19769;48.150;16.306;2022-11-20T22:33:17;4.60;99.90
33428;DHT22;19769;48.150;16.306;2022-11-20T22:35:42;4.70;99.90
33428;DHT22;19769;48.150;16.306;2022-11-20T22:38:08;4.60;99.90
33428;DHT22;19769;48.150;16.306;2022-11-20T22:40:34;4.60;99.90
33428;DHT22;19769;48.150;16.306;2022-11-20T22:42:59;4.60;99.90
33428;DHT22;19769;48.150;16.306;2022-11-20T22:45:25;4.60;99.90
33428;DHT22;19769;48.150;16.306;2022-11-20T22:47:51;4.60;99.90
33428;DHT22;19769;48.150;16.306;2022-11-20T22:50:16;4.60;99.90
33428;DHT22;19769;48.150;16.306;2022-11-20T22:52:42;4.60;99.90
33428;DHT22;19769;48.150;16.306;2022-11-20T22:55:08;4.60;99.90
33428;DHT22;19769;48.150;16.306;2022-11-20T22:57:33;4.50;99.90
33428;DHT22;19769;48.150;16.306;2022-11-20T22:59:59;4.50;99.90
33428;DHT22;19769;48.150;16.306;2022-11-20T23:02:25;4.50;99.90
33428;DHT22;19769;48.150;16.306;2022-11-20T23:04:50;4.40;99.90
33428;DHT22;19769;48.150;16.306;2022-11-20T23:07:17;4.50;99.90
33428;DHT22;19769;48.150;16.306;2022-11-20T23:09:42;4.50;99.90
33428;DHT22;19769;48.150;16.306;2022-11-20T23:12:08;4.50;99.90
33428;DHT22;19769;48.150;16.306;2022-11-20T23:14:33;4.50;99.90
33428;DHT22;19769;48.150;16.306;2022-11-20T23:16:59;4.50;99.90
33428;DHT22;19769;48.150;16.306;2022-11-20T23:19:25;4.50;99.90
33428;DHT22;19769;48.150;16.306;2022-11-20T23:21:50;4.40;99.90
33428;DHT22;19769;48.150;16.306;2022-11-20T23:24:16;4.40;99.90
33428;DHT22;19769;48.150;16.306;2022-11-20T23:26:42;4.40;99.90
33428;DHT22;19769;48.150;16.306;2022-11-20T23:29:09;4.30;99.90
